Time;durP1;ratioP1;P1;durP2;ratioP2;P2;SDS_P1;SDS_P2;PMS_P1;PMS_P2;Temp;Humidity;BMP_temperature;BMP_pressure;BME280_temperature;BME280_humidity;BME280_pressure;Samples;Min_cycle;Max_cycle;Signal;HPM_P1;HPM_P2
2021/12/19 05:02:14;;;;;;;36.63;11.93;;;3.10;99.70;;;;;;4932673;29;20209;-61
2021/12/19 05:05:17;;;;;;;37.83;11.63;;;3.20;99.70;;;;;;4932401;29;20219;-57
2021/12/19 05:15:53;;;;;;;42.93;12.70;;;2.80;99.70;;;;;;4934372;29;20425;-64
2021/12/19 05:18:25;;;;;;;35.20;11.90;;;2.50;99.70;;;;;;4934462;29;20845;-60
2021/12/19 05:20:56;;;;;;;32.67;10.30;;;2.80;99.70;;;;;;4933900;29;20833;-60
2021/12/19 05:23:28;;;;;;;34.17;10.43;;;2.50;99.70;;;;;;4934370;29;20532;-60
2021/12/19 05:25:55;;;;;;;39.03;12.47;;;2.50;99.70;;;;;;4933866;29;20471;-59
2021/12/19 05:28:21;;;;;;;32.50;10.43;;;2.60;99.70;;;;;;4934223;29;20452;-58
2021/12/19 05:30:48;;;;;;;38.83;11.30;;;2.50;99.70;;;;;;4934084;29;20504;-63
2021/12/19 05:33:15;;;;;;;39.60;11.87;;;2.60;99.70;;;;;;4934235;29;20465;-61
2021/12/19 05:36:02;;;;;;;38.50;11.07;;;2.30;99.70;;;;;;4933579;29;21055;-62
2021/12/19 05:44:15;;;;;;;33.37;10.37;;;2.60;99.70;;;;;;4934016;29;20424;-62
2021/12/19 05:46:43;;;;;;;38.50;10.80;;;2.60;99.70;;;;;;4934113;29;20941;-58
2021/12/19 05:49:11;;;;;;;32.90;10.27;;;3.00;99.70;;;;;;4933415;29;20548;-59
2021/12/19 05:51:39;;;;;;;39.63;10.20;;;2.50;99.70;;;;;;4933782;29;20952;-62
2021/12/19 05:54:09;;;;;;;31.83;10.30;;;2.30;99.70;;;;;;4933928;29;20441;-59
2021/12/19 05:56:36;;;;;;;30.50;10.83;;;2.40;99.70;;;;;;4934195;29;20460;-63
2021/12/19 05:59:03;;;;;;;33.80;11.30;;;2.40;99.70;;;;;;4934005;29;20505;-62
2021/12/19 06:01:30;;;;;;;35.63;11.93;;;2.60;99.70;;;;;;4933738;29;20940;-60
2021/12/19 06:03:56;;;;;;;39.23;10.63;;;2.50;99.70;;;;;;4933956;29;20529;-60
2021/12/19 06:06:26;;;;;;;32.77;10.80;;;2.40;99.70;;;;;;4933470;29;20983;-60
2021/12/19 06:08:54;;;;;;;38.27;11.33;;;2.20;99.70;;;;;;4933820;29;20981;-62
2021/12/19 06:11:20;;;;;;;40.97;12.70;;;2.10;99.70;;;;;;4933675;29;20461;-60
2021/12/19 06:13:47;;;;;;;38.20;11.37;;;2.20;99.70;;;;;;4933861;29;20532;-61
2021/12/19 06:16:14;;;;;;;40.77;12.23;;;2.10;99.70;;;;;;4933361;29;20448;-61
2021/12/19 06:18:40;;;;;;;37.50;11.20;;;1.90;99.70;;;;;;4933832;29;20472;-62
2021/12/19 06:21:07;;;;;;;39.10;11.70;;;2.20;99.70;;;;;;4933250;29;20933;-63
2021/12/19 06:23:34;;;;;;;37.37;10.87;;;2.20;99.70;;;;;;4933661;29;20844;-60
2021/12/19 06:26:02;;;;;;;37.87;10.90;;;2.10;99.70;;;;;;4933382;29;20676;-61
2021/12/19 06:28:30;;;;;;;34.03;10.57;;;2.30;99.70;;;;;;4933695;29;21101;-60
2021/12/19 06:30:57;;;;;;;36.70;11.43;;;2.40;99.70;;;;;;4933621;29;20453;-61
2021/12/19 06:33:24;;;;;;;29.43;9.47;;;2.20;99.70;;;;;;4933615;29;21011;-61
2021/12/19 06:35:50;;;;;;;34.87;9.40;;;2.00;99.70;;;;;;4933077;29;20449;-59
2021/12/19 06:38:17;;;;;;;31.77;10.40;;;1.90;99.70;;;;;;4933527;29;20447;-61
2021/12/19 06:40:44;;;;;;;32.90;10.00;;;2.00;99.70;;;;;;4933455;29;20441;-61
2021/12/19 06:43:12;;;;;;;28.33;9.50;;;1.90;99.70;;;;;;4933573;29;20473;-62
2021/12/19 06:45:39;;;;;;;32.13;9.80;;;2.20;99.70;;;;;;4933323;29;20479;-59
2021/12/19 06:48:06;;;;;;;28.67;9.60;;;2.10;99.70;;;;;;4933925;29;20800;-58
2021/12/19 06:50:33;;;;;;;33.10;9.90;;;2.00;99.70;;;;;;4936375;29;20480;-58
2021/12/19 06:53:00;;;;;;;32.50;10.60;;;2.00;99.70;;;;;;4936897;29;20469;-60
2021/12/19 06:55:26;;;;;;;31.40;9.60;;;1.80;99.70;;;;;;4936309;29;20503;-60
2021/12/19 06:57:53;;;;;;;30.13;9.20;;;1.90;99.70;;;;;;4936912;29;20460;-63
2021/12/19 07:00:24;;;;;;;33.33;9.30;;;1.90;99.70;;;;;;4936716;29;20449;-60
2021/12/19 07:02:53;;;;;;;29.23;9.90;;;2.20;99.70;;;;;;4936433;29;20487;-63
2021/12/19 07:05:20;;;;;;;26.83;9.13;;;2.60;99.70;;;;;;4936224;29;20825;-57
2021/12/19 07:07:47;;;;;;;27.67;9.00;;;2.60;99.70;;;;;;4936727;29;20445;-60
2021/12/19 07:10:13;;;;;;;33.50;9.83;;;2.40;99.70;;;;;;4936434;29;20507;-62
2021/12/19 07:12:40;;;;;;;24.00;8.20;;;2.50;99.70;;;;;;4936360;29;21023;-59
2021/12/19 07:15:08;;;;;;;23.63;7.97;;;2.40;99.70;;;;;;4933531;29;20456;-61
2021/12/19 07:17:36;;;;;;;31.10;9.17;;;2.40;99.70;;;;;;4933460;29;20949;-60
2021/12/19 07:20:05;;;;;;;27.13;8.20;;;2.50;99.70;;;;;;4935993;29;21007;-59
2021/12/19 07:22:31;;;;;;;25.20;8.97;;;2.60;99.70;;;;;;4936078;29;20472;-56
2021/12/19 07:24:58;;;;;;;26.33;8.03;;;2.60;99.70;;;;;;4934409;29;20458;-58
2021/12/19 07:27:25;;;;;;;25.73;8.17;;;2.50;99.70;;;;;;4936549;29;20457;-62
2021/12/19 07:29:55;;;;;;;27.10;8.20;;;2.50;99.70;;;;;;4936151;29;21040;-57
2021/12/19 07:32:22;;;;;;;25.33;8.27;;;2.20;99.70;;;;;;4935998;29;21080;-56
2021/12/19 07:34:51;;;;;;;27.93;8.33;;;2.20;99.70;;;;;;4935867;29;20577;-62
2021/12/19 07:37:19;;;;;;;24.03;7.20;;;2.30;99.70;;;;;;4930062;29;20501;-58
2021/12/19 07:39:54;;;;;;;21.50;7.10;;;2.20;99.70;;;;;;4931272;29;20457;-57
2021/12/19 07:42:21;;;;;;;23.17;7.13;;;2.30;99.70;;;;;;4928669;29;20500;-56
2021/12/19 07:44:47;;;;;;;26.70;8.13;;;2.10;99.70;;;;;;4935490;29;21019;-62
2021/12/19 07:47:15;;;;;;;25.27;8.57;;;1.90;99.70;;;;;;4935705;29;20450;-58
2021/12/19 07:49:42;;;;;;;25.90;8.47;;;1.90;99.70;;;;;;4935702;29;20980;-58
2021/12/19 07:52:10;;;;;;;18.53;7.30;;;2.20;99.70;;;;;;4934767;29;20543;-58
2021/12/19 07:54:37;;;;;;;24.57;7.47;;;2.40;99.70;;;;;;4934616;29;20461;-57
2021/12/19 07:57:04;;;;;;;22.50;6.80;;;2.80;99.70;;;;;;4935614;29;20453;-59
2021/12/19 07:59:30;;;;;;;22.20;7.83;;;2.60;99.70;;;;;;4935479;29;20449;-61
2021/12/19 08:01:57;;;;;;;20.40;7.30;;;2.30;99.70;;;;;;4932618;29;20485;-59
2021/12/19 08:04:24;;;;;;;24.93;7.97;;;2.20;99.70;;;;;;4934394;29;20450;-59
2021/12/19 08:06:51;;;;;;;17.27;6.80;;;2.50;99.70;;;;;;4935405;29;20504;-62
2021/12/19 08:09:34;;;;;;;20.57;7.10;;;2.60;99.70;;;;;;4935474;29;20489;-57
2021/12/19 08:12:00;;;;;;;18.83;6.90;;;2.90;99.70;;;;;;4935114;29;20473;-59
2021/12/19 08:14:27;;;;;;;23.23;7.43;;;2.50;99.70;;;;;;4934916;29;20543;-59
2021/12/19 08:16:53;;;;;;;22.43;8.07;;;2.30;99.70;;;;;;4935303;29;20209;-61
2021/12/19 08:19:20;;;;;;;22.37;7.30;;;2.30;99.70;;;;;;4935300;29;20445;-60
2021/12/19 08:21:47;;;;;;;26.30;7.67;;;1.90;99.70;;;;;;4934783;29;20532;-60
2021/12/19 08:24:14;;;;;;;22.50;7.70;;;1.80;99.70;;;;;;4934977;29;20526;-62
2021/12/19 08:26:45;;;;;;;22.37;7.47;;;1.90;99.70;;;;;;4935014;29;20449;-59
2021/12/19 08:29:12;;;;;;;22.33;7.13;;;1.70;99.70;;;;;;4935225;29;20787;-59
2021/12/19 08:31:39;;;;;;;22.10;7.17;;;2.10;99.70;;;;;;4934833;29;20456;-61
2021/12/19 08:34:06;;;;;;;19.73;7.20;;;2.20;99.70;;;;;;4935125;29;20441;-58
2021/12/19 08:36:32;;;;;;;20.30;8.00;;;2.30;99.70;;;;;;4934538;29;20997;-64
2021/12/19 08:38:59;;;;;;;21.80;7.43;;;2.10;99.70;;;;;;4934912;29;20453;-62
2021/12/19 08:41:26;;;;;;;19.80;6.53;;;2.50;99.70;;;;;;4934888;29;20544;-60
2021/12/19 08:43:55;;;;;;;18.20;6.40;;;2.30;99.70;;;;;;4934842;29;20742;-59
2021/12/19 08:46:21;;;;;;;23.17;6.87;;;2.70;99.70;;;;;;4934517;29;20824;-59
2021/12/19 08:48:48;;;;;;;21.20;7.00;;;2.50;99.70;;;;;;4934701;29;20457;-59
2021/12/19 08:51:15;;;;;;;19.77;6.80;;;2.30;99.70;;;;;;4933996;29;20499;-59
2021/12/19 08:53:42;;;;;;;22.47;7.30;;;2.20;99.70;;;;;;4934297;29;20466;-62
2021/12/19 08:56:08;;;;;;;18.87;6.60;;;2.10;99.70;;;;;;4934374;29;20457;-62
2021/12/19 08:58:35;;;;;;;15.80;6.13;;;2.50;99.70;;;;;;4934348;29;20506;-56
2021/12/19 09:01:03;;;;;;;19.60;6.47;;;2.70;99.70;;;;;;4931904;29;20453;-65
2021/12/19 09:03:31;;;;;;;16.93;6.57;;;2.80;99.70;;;;;;4934582;29;20481;-62
2021/12/19 09:05:59;;;;;;;25.50;8.40;;;2.70;99.70;;;;;;4936006;29;20441;-57
2021/12/19 09:08:26;;;;;;;21.93;7.40;;;2.90;99.70;;;;;;4924055;29;20452;-60
2021/12/19 09:10:54;;;;;;;22.57;7.87;;;2.70;99.70;;;;;;4935053;29;20532;-59
2021/12/19 09:13:21;;;;;;;17.57;6.67;;;2.70;99.70;;;;;;4935016;29;20473;-63
2021/12/19 09:15:48;;;;;;;19.40;6.57;;;2.70;99.70;;;;;;4934544;29;20450;-59
2021/12/19 09:18:16;;;;;;;19.20;6.40;;;2.70;99.70;;;;;;4936289;29;20452;-64
2021/12/19 09:20:43;;;;;;;20.27;7.10;;;2.70;99.70;;;;;;4934488;29;20844;-61
2021/12/19 09:23:11;;;;;;;15.93;6.00;;;2.80;99.70;;;;;;4944761;28;20480;-62
2021/12/19 09:25:38;;;;;;;15.13;5.87;;;3.00;99.70;;;;;;4940713;29;20473;-61
2021/12/19 09:28:05;;;;;;;14.20;5.50;;;3.10;99.70;;;;;;4942822;29;20445;-64
2021/12/19 09:30:32;;;;;;;17.37;6.33;;;3.10;99.70;;;;;;4943292;29;20480;-61
2021/12/19 09:32:59;;;;;;;14.70;5.60;;;3.10;99.70;;;;;;4942808;29;21653;-64
2021/12/19 09:35:27;;;;;;;16.83;6.10;;;2.70;99.70;;;;;;4951347;29;20456;-62
2021/12/19 09:37:54;;;;;;;16.63;6.47;;;2.50;99.70;;;;;;4936320;29;20469;-61
2021/12/19 09:40:24;;;;;;;14.77;5.43;;;2.50;99.70;;;;;;4933180;29;20536;-62
2021/12/19 09:43:00;;;;;;;15.80;6.13;;;2.40;99.70;;;;;;4939960;28;20511;-60
2021/12/19 09:45:27;;;;;;;17.40;6.43;;;2.50;99.70;;;;;;4934160;29;20457;-59
2021/12/19 09:47:54;;;;;;;15.90;6.10;;;2.90;99.70;;;;;;4936289;29;20495;-61
2021/12/19 09:50:21;;;;;;;14.63;5.87;;;2.90;99.70;;;;;;4934962;29;20869;-61
2021/12/19 09:52:50;;;;;;;14.57;6.10;;;3.00;99.70;;;;;;4934762;29;21043;-60
2021/12/19 09:55:21;;;;;;;15.50;5.57;;;3.20;99.70;;;;;;4934639;29;20500;-62
2021/12/19 09:57:48;;;;;;;13.83;5.13;;;2.80;99.70;;;;;;4935933;29;20463;-63
2021/12/19 10:00:16;;;;;;;11.80;4.90;;;2.70;99.70;;;;;;4934620;29;20505;-61
2021/12/19 10:02:43;;;;;;;13.90;5.33;;;2.70;99.70;;;;;;4935621;29;20489;-63
2021/12/19 10:05:20;;;;;;;16.27;5.97;;;2.50;99.70;;;;;;4933999;29;20485;-64
2021/12/19 10:07:50;;;;;;;13.97;5.20;;;2.50;99.70;;;;;;4939058;29;20993;-63
2021/12/19 10:10:25;;;;;;;14.60;5.53;;;2.70;99.70;;;;;;4926090;29;20580;-61
2021/12/19 10:12:54;;;;;;;16.37;6.13;;;2.80;99.70;;;;;;4930082;29;20469;-60
2021/12/19 10:15:29;;;;;;;14.13;5.30;;;2.70;99.70;;;;;;4928365;29;20457;-63
2021/12/19 10:18:07;;;;;;;16.97;5.87;;;2.60;99.70;;;;;;4927603;29;20465;-60
2021/12/19 10:20:43;;;;;;;14.83;5.70;;;2.70;99.70;;;;;;4928713;29;20841;-60
2021/12/19 10:23:14;;;;;;;15.60;5.63;;;2.60;99.70;;;;;;4933822;29;20488;-60
2021/12/19 10:25:41;;;;;;;15.60;5.77;;;2.30;99.70;;;;;;4935779;29;20453;-63
2021/12/19 10:28:10;;;;;;;15.83;6.07;;;2.40;99.70;;;;;;4937309;29;20457;-58
2021/12/19 10:30:39;;;;;;;18.10;6.53;;;2.60;99.70;;;;;;4937374;29;21027;-57
2021/12/19 10:33:08;;;;;;;18.73;6.80;;;3.00;99.70;;;;;;4951330;28;20479;-58
2021/12/19 10:35:39;;;;;;;15.10;5.90;;;2.80;99.70;;;;;;4950838;29;20457;-56
2021/12/19 10:38:08;;;;;;;14.80;6.30;;;2.70;99.70;;;;;;4939561;29;20492;-59
2021/12/19 10:40:36;;;;;;;17.20;5.47;;;2.90;99.70;;;;;;4937303;29;20480;-62
2021/12/19 10:43:04;;;;;;;13.80;5.40;;;3.00;99.70;;;;;;4939255;29;20494;-63
2021/12/19 10:45:34;;;;;;;13.30;5.97;;;3.00;99.70;;;;;;4944169;29;20444;-61
2021/12/19 10:48:22;;;;;;;16.97;6.20;;;3.10;99.70;;;;;;4937496;29;20455;-62
2021/12/19 10:50:53;;;;;;;13.07;5.90;;;2.80;99.70;;;;;;4937421;29;20852;-59
2021/12/19 10:53:24;;;;;;;19.73;6.93;;;3.00;99.70;;;;;;4952405;28;20979;-61
2021/12/19 10:55:53;;;;;;;14.57;5.90;;;3.00;99.70;;;;;;4942014;29;20460;-59
2021/12/19 10:58:25;;;;;;;14.57;5.47;;;3.30;99.70;;;;;;4934967;29;20478;-62
2021/12/19 11:01:06;;;;;;;15.47;5.33;;;3.40;99.70;;;;;;4935664;29;20452;-62
2021/12/19 11:03:39;;;;;;;14.40;5.40;;;3.10;99.70;;;;;;4929927;29;20504;-60
2021/12/19 11:06:33;;;;;;;14.17;5.63;;;3.50;99.70;;;;;;4935605;29;20469;-65
2021/12/19 11:09:02;;;;;;;14.37;5.10;;;3.50;99.70;;;;;;4931760;29;20464;-63
2021/12/19 11:11:41;;;;;;;13.80;5.50;;;3.50;99.70;;;;;;4959334;23;20976;-62
2021/12/19 11:14:09;;;;;;;13.00;5.40;;;3.50;99.70;;;;;;4928127;29;20456;-62
2021/12/19 11:16:36;;;;;;;11.67;5.00;;;2.90;99.70;;;;;;4940519;29;20445;-61
2021/12/19 11:19:02;;;;;;;9.53;4.40;;;3.00;99.70;;;;;;4937251;29;20445;-60
2021/12/19 11:21:33;;;;;;;12.50;4.50;;;3.40;99.70;;;;;;4937088;29;20465;-63
2021/12/19 11:24:00;;;;;;;9.60;4.20;;;3.60;99.70;;;;;;4930709;29;20556;-61
2021/12/19 11:26:28;;;;;;;8.80;3.80;;;3.80;99.70;;;;;;4926495;29;20879;-64
2021/12/19 11:28:57;;;;;;;8.43;3.60;;;3.70;99.70;;;;;;4907801;29;20535;-60
2021/12/19 11:31:27;;;;;;;7.73;3.70;;;3.50;99.70;;;;;;4908492;29;20580;-59
2021/12/19 11:34:17;;;;;;;8.30;3.93;;;3.40;99.70;;;;;;4913313;29;20964;-62
2021/12/19 11:36:49;;;;;;;10.50;3.73;;;3.40;99.70;;;;;;4906290;29;20466;-62
2021/12/19 11:39:17;;;;;;;7.67;3.57;;;3.30;99.70;;;;;;4908063;29;20457;-60
2021/12/19 11:42:09;;;;;;;8.47;4.13;;;3.20;99.70;;;;;;4914700;29;20481;-64
2021/12/19 11:44:46;;;;;;;9.67;3.80;;;3.40;99.70;;;;;;4906838;29;20534;-61
2021/12/19 11:47:16;;;;;;;10.10;4.27;;;3.30;99.70;;;;;;4903097;29;20965;-62
2021/12/19 11:49:43;;;;;;;9.17;4.07;;;3.30;99.70;;;;;;4904945;29;20552;-63
2021/12/19 11:52:30;;;;;;;8.17;4.00;;;3.50;99.70;;;;;;4914050;29;20877;-62
2021/12/19 11:55:23;;;;;;;10.00;4.57;;;3.50;99.70;;;;;;4914789;29;20446;-62
2021/12/19 11:58:33;;;;;;;9.80;4.67;;;3.10;99.70;;;;;;4902883;29;20978;-63
2021/12/19 12:01:05;;;;;;;10.50;4.97;;;3.50;99.70;;;;;;4886180;29;20491;-61
2021/12/19 12:03:39;;;;;;;12.27;4.97;;;3.60;99.70;;;;;;4902241;29;20467;-61
2021/12/19 12:06:26;;;;;;;11.93;5.60;;;3.60;99.70;;;;;;4913622;29;20986;-63
2021/12/19 12:09:09;;;;;;;14.67;5.73;;;3.90;99.70;;;;;;4911687;29;20458;-63
2021/12/19 12:11:38;;;;;;;12.30;6.03;;;3.70;99.70;;;;;;4911665;29;20493;-61
2021/12/19 12:14:21;;;;;;;12.33;5.60;;;3.90;99.70;;;;;;4915042;29;20458;-62
2021/12/19 12:16:58;;;;;;;12.70;5.77;;;3.70;99.70;;;;;;4910520;29;20466;-62
2021/12/19 12:19:40;;;;;;;13.23;5.43;;;3.70;99.70;;;;;;4909894;29;20478;-62
2021/12/19 12:22:34;;;;;;;11.90;5.43;;;3.90;99.70;;;;;;4915666;29;20526;-60
2021/12/19 12:25:10;;;;;;;18.80;7.27;;;3.90;99.70;;;;;;4916148;29;20450;-64
2021/12/19 12:27:39;;;;;;;17.70;6.90;;;3.90;99.70;;;;;;4909660;29;20465;-61
2021/12/19 12:30:07;;;;;;;17.00;6.97;;;3.70;99.70;;;;;;4915810;29;20937;-61
2021/12/19 12:32:35;;;;;;;15.77;6.70;;;3.30;99.70;;;;;;4913368;29;20568;-63
2021/12/19 12:35:03;;;;;;;17.50;6.97;;;3.50;99.70;;;;;;4903842;29;20462;-65
2021/12/19 12:37:30;;;;;;;17.30;7.83;;;3.40;99.70;;;;;;4913349;29;20442;-62
2021/12/19 12:40:17;;;;;;;19.87;7.27;;;3.70;99.70;;;;;;4910808;29;20446;-61
2021/12/19 12:43:08;;;;;;;19.97;7.60;;;3.60;99.70;;;;;;4910486;29;20474;-61
2021/12/19 12:46:09;;;;;;;18.97;7.97;;;3.20;99.70;;;;;;4908337;29;20446;-62
2021/12/19 12:48:58;;;;;;;27.37;10.30;;;3.50;99.70;;;;;;4881890;29;20455;-59
2021/12/19 12:51:28;;;;;;;17.73;7.20;;;3.40;99.70;;;;;;4911050;29;20486;-59
2021/12/19 12:53:56;;;;;;;18.50;7.70;;;3.60;99.70;;;;;;4927695;29;20449;-58
2021/12/19 12:56:30;;;;;;;18.53;7.00;;;3.40;99.70;;;;;;4915618;29;20838;-61
2021/12/19 12:58:57;;;;;;;19.37;7.13;;;3.10;99.70;;;;;;4928892;29;20457;-60
2021/12/19 13:01:35;;;;;;;19.13;7.43;;;3.10;99.70;;;;;;4934041;29;20562;-61
2021/12/19 13:04:17;;;;;;;21.23;7.53;;;2.90;99.70;;;;;;4926912;29;20455;-59
2021/12/19 13:06:51;;;;;;;15.83;6.67;;;3.10;99.70;;;;;;4915462;29;20468;-60
2021/12/19 13:09:21;;;;;;;19.60;8.97;;;3.40;99.70;;;;;;4926788;29;20476;-63
2021/12/19 13:11:49;;;;;;;17.67;7.50;;;3.40;99.70;;;;;;4913220;29;20505;-63
2021/12/19 13:14:20;;;;;;;17.87;7.23;;;3.10;99.70;;;;;;4914962;29;20454;-61
2021/12/19 13:16:49;;;;;;;20.87;7.90;;;3.00;99.70;;;;;;4915337;29;20445;-64
2021/12/19 13:19:47;;;;;;;16.37;6.83;;;3.20;99.70;;;;;;4920679;29;20446;-60
2021/12/19 13:22:16;;;;;;;18.63;6.53;;;3.40;99.70;;;;;;4924123;29;20988;-61
2021/12/19 13:24:45;;;;;;;18.27;7.27;;;4.00;99.70;;;;;;4899951;29;20891;-61
2021/12/19 13:27:17;;;;;;;18.93;7.80;;;3.80;99.70;;;;;;4923537;29;20444;-60
2021/12/19 13:29:58;;;;;;;17.07;7.90;;;3.60;99.70;;;;;;4917806;29;20469;-60
2021/12/19 13:32:31;;;;;;;16.20;6.43;;;3.40;99.70;;;;;;4925893;29;20497;-59
2021/12/19 13:35:00;;;;;;;17.23;7.20;;;3.40;99.70;;;;;;4928447;29;20457;-63
2021/12/19 13:37:32;;;;;;;16.83;7.87;;;3.30;99.70;;;;;;4920200;29;20846;-61
2021/12/19 13:40:06;;;;;;;16.23;6.97;;;3.10;99.70;;;;;;4908465;29;20515;-60
2021/12/19 13:42:46;;;;;;;18.40;7.03;;;2.90;99.70;;;;;;4907268;29;20908;-59
2021/12/19 13:45:35;;;;;;;17.43;7.10;;;2.80;99.70;;;;;;4911999;29;20830;-61
2021/12/19 13:48:05;;;;;;;13.97;6.40;;;2.80;99.70;;;;;;4905344;29;20459;-62
2021/12/19 13:50:38;;;;;;;13.50;6.87;;;3.00;99.70;;;;;;4909998;29;20454;-60
2021/12/19 13:53:06;;;;;;;27.20;14.40;;;3.10;99.70;;;;;;4911365;29;20507;-63
2021/12/19 13:55:42;;;;;;;17.00;7.77;;;3.00;99.70;;;;;;4907311;29;21727;-60
2021/12/19 13:58:10;;;;;;;10.80;5.47;;;2.90;99.70;;;;;;4905400;29;20830;-62
2021/12/19 14:00:39;;;;;;;13.07;6.43;;;3.00;99.70;;;;;;4914012;29;20460;-62
2021/12/19 14:03:06;;;;;;;13.70;7.10;;;3.20;99.70;;;;;;4916375;29;20997;-64
2021/12/19 14:05:38;;;;;;;12.73;5.90;;;3.30;99.70;;;;;;4914098;29;20462;-64
2021/12/19 14:08:23;;;;;;;10.77;5.53;;;3.10;99.70;;;;;;4917745;29;20997;-63
2021/12/19 14:11:06;;;;;;;10.40;4.97;;;3.20;99.70;;;;;;4913782;29;20891;-63
2021/12/19 14:13:35;;;;;;;12.97;5.50;;;3.40;99.70;;;;;;4916873;29;20461;-63
2021/12/19 14:16:03;;;;;;;10.97;5.07;;;3.30;99.70;;;;;;4915867;29;20547;-63
2021/12/19 14:18:36;;;;;;;10.97;5.00;;;3.50;99.70;;;;;;4912826;29;20473;-65
2021/12/19 14:21:05;;;;;;;15.23;5.30;;;3.50;99.70;;;;;;4912403;29;20496;-65
2021/12/19 14:23:39;;;;;;;11.00;4.97;;;3.50;99.70;;;;;;4914230;29;20937;-64
2021/12/19 14:26:25;;;;;;;12.93;5.37;;;3.50;99.70;;;;;;4906955;29;20480;-62
2021/12/19 14:28:52;;;;;;;11.40;5.07;;;3.50;99.70;;;;;;4923610;29;20450;-63
2021/12/19 14:31:18;;;;;;;11.60;5.00;;;3.40;99.70;;;;;;4925667;29;20491;-62
2021/12/19 14:33:45;;;;;;;11.63;4.90;;;3.60;99.70;;;;;;4926387;29;20450;-61
2021/12/19 14:36:13;;;;;;;11.23;5.03;;;3.70;99.70;;;;;;4915468;29;20833;-59
2021/12/19 14:38:40;;;;;;;10.27;4.97;;;3.60;99.70;;;;;;4899358;29;20450;-60
2021/12/19 14:41:09;;;;;;;13.03;5.57;;;3.40;99.70;;;;;;4914820;29;21065;-62
2021/12/19 14:43:38;;;;;;;13.07;5.77;;;3.30;99.70;;;;;;4916581;29;20453;-62
2021/12/19 14:46:07;;;;;;;12.27;5.13;;;3.40;99.70;;;;;;4934064;29;20528;-62
2021/12/19 14:48:39;;;;;;;10.87;5.17;;;3.50;99.70;;;;;;4924379;29;20875;-63
2021/12/19 14:51:09;;;;;;;13.20;5.70;;;3.60;99.70;;;;;;4936785;29;20472;-61
2021/12/19 14:53:39;;;;;;;12.50;5.50;;;3.40;99.70;;;;;;4922882;29;20450;-63
2021/12/19 14:56:09;;;;;;;13.20;5.80;;;3.30;99.70;;;;;;4917232;29;20453;-62
2021/12/19 14:58:38;;;;;;;10.03;4.80;;;3.30;99.70;;;;;;4916884;29;20501;-59
2021/12/19 15:01:07;;;;;;;11.50;4.90;;;3.30;99.70;;;;;;4909528;29;21040;-61
2021/12/19 15:03:36;;;;;;;12.90;5.67;;;3.40;99.70;;;;;;4908691;29;20454;-61
2021/12/19 15:06:11;;;;;;;11.40;5.37;;;3.30;99.70;;;;;;4917400;29;20992;-62
2021/12/19 15:08:39;;;;;;;12.37;5.90;;;3.30;99.70;;;;;;4917076;29;20445;-61
2021/12/19 15:11:07;;;;;;;12.60;5.27;;;3.30;99.70;;;;;;4916919;29;20472;-60
2021/12/19 15:13:33;;;;;;;12.80;5.37;;;3.30;99.70;;;;;;4917634;29;20493;-63
2021/12/19 15:16:01;;;;;;;13.33;5.73;;;3.30;99.70;;;;;;4916667;29;20453;-61
2021/12/19 15:18:28;;;;;;;14.50;6.80;;;3.20;99.70;;;;;;4917675;29;20463;-60
2021/12/19 15:20:56;;;;;;;14.43;6.73;;;3.40;99.70;;;;;;4911273;29;20498;-63
2021/12/19 15:23:23;;;;;;;17.40;7.60;;;3.30;99.70;;;;;;4917239;29;20521;-62
2021/12/19 15:25:52;;;;;;;19.63;8.40;;;3.40;99.70;;;;;;4914343;29;20466;-63
2021/12/19 15:28:21;;;;;;;22.20;11.03;;;3.30;99.70;;;;;;4910535;29;21520;-57
2021/12/19 15:30:48;;;;;;;23.80;9.90;;;3.40;99.70;;;;;;4909968;29;20474;-60
2021/12/19 15:33:16;;;;;;;19.83;9.60;;;3.30;99.70;;;;;;4909673;29;20523;-62
2021/12/19 15:35:43;;;;;;;20.00;9.73;;;3.20;99.70;;;;;;4915280;29;20550;-64
2021/12/19 15:38:10;;;;;;;22.60;10.00;;;3.20;99.70;;;;;;4916384;29;20502;-62
2021/12/19 15:40:37;;;;;;;20.23;9.67;;;3.30;99.70;;;;;;4916332;29;20446;-63
2021/12/19 15:43:05;;;;;;;19.67;10.07;;;3.30;99.70;;;;;;4930784;29;20500;-64
2021/12/19 15:45:33;;;;;;;19.73;8.40;;;3.30;99.70;;;;;;4932131;29;20474;-64
2021/12/19 15:48:00;;;;;;;22.40;9.57;;;3.10;99.70;;;;;;4936282;29;20468;-62
2021/12/19 15:50:27;;;;;;;20.67;9.10;;;3.10;99.70;;;;;;4921625;29;20470;-63
2021/12/19 15:52:54;;;;;;;18.33;8.77;;;3.10;99.70;;;;;;4905854;29;20490;-63
2021/12/19 15:55:20;;;;;;;20.33;9.43;;;3.20;99.70;;;;;;4904156;29;20473;-63
2021/12/19 15:57:48;;;;;;;23.53;9.50;;;3.00;99.70;;;;;;4915041;29;20548;-60
2021/12/19 16:00:19;;;;;;;21.83;9.70;;;3.00;99.70;;;;;;4912900;29;20836;-62
2021/12/19 16:02:47;;;;;;;19.63;8.57;;;3.00;99.70;;;;;;4903052;29;20537;-62
2021/12/19 16:05:15;;;;;;;18.97;8.40;;;3.20;99.70;;;;;;4911152;29;20543;-62
2021/12/19 16:07:42;;;;;;;18.73;8.60;;;3.20;99.70;;;;;;4910074;29;20465;-63
2021/12/19 16:10:11;;;;;;;22.63;9.30;;;3.00;99.70;;;;;;4916482;29;20458;-61
2021/12/19 16:12:39;;;;;;;19.27;8.43;;;3.00;99.70;;;;;;4916232;29;20568;-61
2021/12/19 16:15:08;;;;;;;17.80;8.23;;;2.80;99.70;;;;;;4916065;29;20517;-64
2021/12/19 16:17:37;;;;;;;15.97;7.63;;;2.90;99.70;;;;;;4916013;29;20497;-62
2021/12/19 16:20:05;;;;;;;17.50;7.60;;;3.00;99.70;;;;;;4923662;29;20453;-63
2021/12/19 16:22:32;;;;;;;18.87;7.37;;;3.00;99.70;;;;;;4914680;29;20604;-63
2021/12/19 16:24:59;;;;;;;15.63;7.60;;;2.80;99.70;;;;;;4915625;29;20442;-63
2021/12/19 16:27:25;;;;;;;15.70;7.40;;;3.00;99.70;;;;;;4916412;29;20454;-62
2021/12/19 16:29:52;;;;;;;16.70;7.27;;;3.20;99.70;;;;;;4910287;29;20478;-63
2021/12/19 16:32:19;;;;;;;19.37;8.03;;;3.10;99.70;;;;;;4910331;29;20500;-64
2021/12/19 16:34:47;;;;;;;21.63;8.40;;;2.90;99.70;;;;;;4915575;29;20467;-64
2021/12/19 16:37:16;;;;;;;19.30;7.60;;;2.90;99.70;;;;;;4897370;29;20454;-65
2021/12/19 16:39:44;;;;;;;21.07;7.50;;;3.10;99.70;;;;;;4896849;29;20457;-66
2021/12/19 16:43:29;;;;;;;19.37;8.07;;;3.10;99.70;;;;;;4909005;29;20466;-64
2021/12/19 16:44:59;;;;;;;20.57;8.10;;;3.20;99.70;;;;;;4911935;29;20996;-65
2021/12/19 16:47:27;;;;;;;20.40;7.80;;;3.00;99.70;;;;;;4915850;29;20449;-65
2021/12/19 16:49:55;;;;;;;21.30;8.00;;;3.00;99.70;;;;;;4913964;29;20469;-65
2021/12/19 16:52:21;;;;;;;19.70;8.00;;;3.20;99.70;;;;;;4911500;29;20533;-65
2021/12/19 16:54:49;;;;;;;22.47;8.03;;;3.10;99.70;;;;;;4904461;29;20511;-66
2021/12/19 16:57:16;;;;;;;22.87;8.50;;;3.00;99.70;;;;;;4904879;29;20469;-65
2021/12/19 16:59:43;;;;;;;25.57;9.17;;;3.00;99.70;;;;;;4914986;29;20454;-64
2021/12/19 17:02:10;;;;;;;18.90;7.93;;;2.90;99.70;;;;;;4923011;29;20470;-64
2021/12/19 17:04:37;;;;;;;20.70;8.37;;;3.10;99.70;;;;;;4923639;29;20941;-65
2021/12/19 17:07:06;;;;;;;23.70;9.73;;;3.40;99.70;;;;;;4925165;29;20951;-65
2021/12/19 17:09:33;;;;;;;25.87;8.93;;;3.20;99.70;;;;;;4918559;29;20458;-65
2021/12/19 17:12:06;;;;;;;21.53;8.40;;;3.10;99.70;;;;;;4923212;29;20485;-65
2021/12/19 17:14:33;;;;;;;23.80;8.93;;;3.00;99.70;;;;;;4922548;29;20452;-65
2021/12/19 17:17:02;;;;;;;19.43;7.87;;;2.90;99.70;;;;;;4923590;29;20575;-65
2021/12/19 17:19:29;;;;;;;27.53;10.07;;;3.00;99.70;;;;;;4921032;29;20457;-65
2021/12/19 17:21:56;;;;;;;23.67;8.37;;;3.00;99.70;;;;;;4924007;29;20468;-66
2021/12/19 17:24:25;;;;;;;21.20;8.13;;;2.90;99.70;;;;;;4925094;29;20455;-64
2021/12/19 17:26:52;;;;;;;23.67;8.20;;;2.80;99.70;;;;;;4918043;29;20552;-65
2021/12/19 17:29:19;;;;;;;22.70;8.17;;;2.80;99.70;;;;;;4918326;29;20980;-65
2021/12/19 17:31:46;;;;;;;19.03;7.87;;;3.00;99.70;;;;;;4920678;29;20481;-65
2021/12/19 17:34:13;;;;;;;23.90;8.20;;;3.00;99.70;;;;;;4923128;29;20496;-65
2021/12/19 17:36:40;;;;;;;22.50;7.77;;;2.90;99.70;;;;;;4924204;29;20536;-64
2021/12/19 17:39:07;;;;;;;20.47;8.13;;;2.90;99.70;;;;;;4925266;29;20446;-61
2021/12/19 17:41:36;;;;;;;20.17;7.53;;;2.90;99.70;;;;;;4920292;29;20487;-64
2021/12/19 17:44:04;;;;;;;20.43;8.00;;;3.00;99.70;;;;;;4925405;29;20444;-65
2021/12/19 17:46:33;;;;;;;19.30;7.90;;;3.10;99.70;;;;;;4927794;29;20949;-64
2021/12/19 17:49:00;;;;;;;21.43;9.00;;;3.20;99.70;;;;;;4920916;29;20477;-65
2021/12/19 17:51:27;;;;;;;22.07;8.70;;;3.40;99.70;;;;;;4907105;29;20473;-65
2021/12/19 17:53:54;;;;;;;27.00;9.87;;;3.40;99.70;;;;;;4914005;29;20497;-65
2021/12/19 17:56:20;;;;;;;28.70;10.33;;;3.20;99.70;;;;;;4920811;29;20457;-65
2021/12/19 17:58:48;;;;;;;31.30;11.97;;;3.20;99.70;;;;;;4987451;23;20539;-69
2021/12/19 18:01:18;;;;;;;27.80;11.53;;;3.20;99.70;;;;;;4927148;29;20452;-69
2021/12/19 18:03:48;;;;;;;25.57;9.40;;;3.20;99.70;;;;;;4930371;29;20960;-69
2021/12/19 18:06:16;;;;;;;24.03;9.30;;;3.30;99.70;;;;;;4942141;29;20444;-69
2021/12/19 18:08:43;;;;;;;24.30;9.30;;;3.40;99.70;;;;;;4938214;29;20537;-69
2021/12/19 18:11:10;;;;;;;23.30;10.13;;;3.30;99.70;;;;;;4919148;29;20465;-69
2021/12/19 18:13:37;;;;;;;23.10;9.60;;;3.50;99.70;;;;;;4919786;29;20492;-69
2021/12/19 18:16:05;;;;;;;28.83;10.30;;;3.40;99.70;;;;;;4921222;29;20866;-67